Time;durP1;ratioP1;P1;durP2;ratioP2;P2;SDS_P1;SDS_P2;PMS_P1;PMS_P2;Temp;Humidity;BMP_temperature;BMP_pressure;BME280_temperature;BME280_humidity;BME280_pressure;Samples;Min_cycle;Max_cycle;Signal;HPM_P1;HPM_P2
2023/08/15 00:00:33;;;;;;;2.70;2.30;;;;;;;27.87;52.64;101224.03;5053921;28;20060;-57
2023/08/15 00:03:00;;;;;;;2.97;2.35;;;;;;;27.87;52.49;101226.75;5053802;28;20096;-57
2023/08/15 00:05:28;;;;;;;3.40;2.58;;;;;;;27.87;52.53;101219.44;5053164;28;20045;-57
2023/08/15 00:08:02;;;;;;;3.80;2.45;;;;;;;27.87;52.59;101219.44;5053805;28;20417;-59
2023/08/15 00:10:30;;;;;;;3.03;2.55;;;;;;;27.87;52.08;101219.44;5053692;28;20434;-59
2023/08/15 00:12:57;;;;;;;3.28;2.83;;;;;;;27.87;52.42;101216.72;5053671;28;20068;-59
2023/08/15 00:15:24;;;;;;;2.75;2.40;;;;;;;27.87;52.49;101224.88;5052949;28;20052;-59
2023/08/15 00:17:52;;;;;;;2.58;2.08;;;;;;;27.87;52.20;101219.44;5053612;28;20388;-59
2023/08/15 00:20:19;;;;;;;2.60;2.20;;;;;;;27.87;52.59;101219.44;5053535;28;20044;-59
2023/08/15 00:22:47;;;;;;;3.75;2.95;;;;;;;27.87;52.28;101213.16;5054251;28;20383;-59
2023/08/15 00:25:14;;;;;;;2.95;2.30;;;;;;;27.89;52.16;101208.41;5053145;28;20056;-59
2023/08/15 00:27:41;;;;;;;3.00;2.50;;;;;;;27.87;52.63;101216.72;5053665;28;20056;-57
2023/08/15 00:30:10;;;;;;;2.72;2.45;;;;;;;27.88;52.54;101217.59;5053348;28;20037;-57
2023/08/15 00:32:37;;;;;;;2.88;2.50;;;;;;;27.87;52.28;101216.72;5053583;28;20048;-57
2023/08/15 00:35:05;;;;;;;3.25;2.45;;;;;;;27.87;52.20;101213.16;5052886;28;20045;-57
2023/08/15 00:37:34;;;;;;;3.75;2.50;;;;;;;27.88;52.51;101220.31;5052184;28;20064;-59
2023/08/15 00:40:02;;;;;;;3.20;2.75;;;;;;;27.87;52.66;101205.00;5053719;28;20510;-59
2023/08/15 00:42:30;;;;;;;2.97;2.67;;;;;;;27.87;52.29;101208.56;5053217;28;20049;-59
2023/08/15 00:44:57;;;;;;;3.03;2.53;;;;;;;27.88;52.53;101209.44;5052540;28;20056;-59
2023/08/15 00:47:25;;;;;;;3.60;2.60;;;;;;;27.87;52.51;101199.56;5053624;28;20067;-59
2023/08/15 00:49:54;;;;;;;3.25;2.85;;;;;;;27.87;52.28;101202.28;5053104;28;20514;-59
2023/08/15 00:52:22;;;;;;;4.07;2.85;;;;;;;27.87;52.19;101194.94;5053586;28;20048;-59
2023/08/15 00:54:50;;;;;;;3.10;2.60;;;;;;;27.87;52.38;101199.56;5052463;28;20080;-59
2023/08/15 00:57:18;;;;;;;3.45;2.97;;;;;;;27.87;52.40;101208.56;5053778;28;20067;-59
2023/08/15 00:59:47;;;;;;;3.25;2.50;;;;;;;27.87;52.66;101205.84;5052885;28;20072;-59
2023/08/15 01:02:14;;;;;;;3.50;2.97;;;;;;;27.86;52.25;101209.59;5053386;28;20053;-59
2023/08/15 01:04:42;;;;;;;3.55;2.90;;;;;;;27.87;52.18;101205.84;5052359;28;20419;-59
2023/08/15 01:07:10;;;;;;;3.20;2.45;;;;;;;27.88;52.62;101204.00;5051528;28;20402;-59
2023/08/15 01:09:37;;;;;;;3.10;2.50;;;;;;;27.87;52.30;101208.56;5052857;28;20045;-59
2023/08/15 01:12:08;;;;;;;2.97;2.47;;;;;;;27.87;52.51;101196.84;5038070;28;20046;-59
2023/08/15 01:14:55;;;;;;;3.70;2.53;;;;;;;27.88;52.19;101201.28;5050807;28;20061;-59
2023/08/15 01:17:35;;;;;;;3.08;2.72;;;;;;;27.87;52.49;101199.56;5053153;28;20049;-57
2023/08/15 01:20:07;;;;;;;3.03;2.70;;;;;;;27.86;52.22;101198.72;5051453;28;20052;-57
2023/08/15 01:22:41;;;;;;;3.90;2.92;;;;;;;27.88;52.57;101204.84;5034372;28;20050;-57
2023/08/15 01:25:09;;;;;;;3.63;3.03;;;;;;;27.87;52.19;101214.00;5034231;28;20511;-58
2023/08/15 01:27:36;;;;;;;3.13;2.58;;;;;;;27.87;52.37;101208.56;5033802;28;20049;-57
2023/08/15 01:30:05;;;;;;;3.50;2.90;;;;;;;27.86;52.60;101212.31;5034849;28;20050;-57
2023/08/15 01:32:42;;;;;;;3.28;2.75;;;;;;;27.87;52.24;101213.16;5034093;28;20052;-57
2023/08/15 01:35:31;;;;;;;3.35;2.50;;;;;;;27.88;52.29;101214.88;5032721;28;20519;-57
2023/08/15 01:38:09;;;;;;;3.28;2.65;;;;;;;27.88;52.23;101214.88;5033322;28;20056;-59
2023/08/15 01:40:38;;;;;;;3.00;2.70;;;;;;;27.86;52.56;101209.59;5032853;28;20061;-59
2023/08/15 01:43:10;;;;;;;3.13;2.70;;;;;;;27.87;52.20;101202.28;5033720;28;20052;-59
2023/08/15 01:45:37;;;;;;;3.20;2.90;;;;;;;27.86;52.55;101196.00;5033860;28;20064;-59
2023/08/15 01:48:05;;;;;;;3.28;2.67;;;;;;;27.85;52.22;101189.72;5033926;28;20053;-59
2023/08/15 01:50:32;;;;;;;2.90;2.50;;;;;;;27.85;52.27;101195.16;5034087;28;20053;-59
2023/08/15 01:53:02;;;;;;;2.60;2.40;;;;;;;27.86;52.32;101190.53;5036936;28;20049;-59
2023/08/15 01:55:29;;;;;;;2.95;2.47;;;;;;;27.87;52.26;101197.69;5036599;28;20061;-59
2023/08/15 01:57:56;;;;;;;3.42;2.83;;;;;;;27.87;52.27;101196.84;5035974;28;20411;-57
2023/08/15 02:00:24;;;;;;;3.83;3.05;;;;;;;27.87;52.28;101191.38;5036317;28;20054;-58
2023/08/15 02:02:51;;;;;;;4.00;2.88;;;;;;;27.87;52.27;101197.69;5037376;28;20044;-57
2023/08/15 02:05:19;;;;;;;3.50;2.60;;;;;;;27.86;52.60;101193.28;5037634;28;20038;-57
2023/08/15 02:07:46;;;;;;;3.03;2.72;;;;;;;27.86;52.66;101190.53;5037220;28;20045;-57
2023/08/15 02:10:13;;;;;;;3.03;2.72;;;;;;;27.86;52.34;101187.81;5037781;28;20052;-57
2023/08/15 02:12:41;;;;;;;3.38;2.95;;;;;;;27.86;52.24;101190.53;5037159;28;20064;-57
2023/08/15 02:15:08;;;;;;;3.08;2.78;;;;;;;27.87;52.36;101192.22;5036079;28;20053;-57
2023/08/15 02:17:36;;;;;;;3.08;2.60;;;;;;;27.87;52.58;101191.38;5036259;28;20053;-57
2023/08/15 02:20:04;;;;;;;3.63;2.85;;;;;;;27.86;52.58;101190.53;5037173;28;20037;-57
2023/08/15 02:22:31;;;;;;;4.40;2.90;;;;;;;27.86;52.27;101190.53;5037310;28;20380;-57
2023/08/15 02:24:59;;;;;;;3.53;2.95;;;;;;;27.86;52.36;101190.53;5037452;28;20049;-57
2023/08/15 02:27:26;;;;;;;3.42;2.90;;;;;;;27.85;52.67;101186.97;5053135;28;20049;-58
2023/08/15 02:29:53;;;;;;;3.40;2.90;;;;;;;27.87;52.26;101188.66;5056083;28;20052;-57
2023/08/15 02:32:21;;;;;;;3.22;2.78;;;;;;;27.85;52.27;101184.25;5055756;28;20049;-57
2023/08/15 02:34:48;;;;;;;3.03;2.63;;;;;;;27.86;52.58;101179.66;5054502;28;20049;-57
2023/08/15 02:37:16;;;;;;;3.50;2.75;;;;;;;27.86;52.33;101185.09;5034650;28;20061;-57
2023/08/15 02:39:43;;;;;;;3.00;2.60;;;;;;;27.86;52.64;101182.38;5036664;28;20061;-57
2023/08/15 02:42:10;;;;;;;3.50;2.90;;;;;;;27.87;52.33;101192.22;5036965;28;20068;-57
2023/08/15 02:44:38;;;;;;;3.03;2.72;;;;;;;27.86;52.50;101182.38;5035584;28;20060;-57
2023/08/15 02:47:06;;;;;;;3.30;3.00;;;;;;;27.85;52.46;101177.97;5037357;28;20056;-58
2023/08/15 02:49:33;;;;;;;3.65;3.03;;;;;;;27.86;52.76;101174.22;5035499;28;20041;-57
2023/08/15 02:52:00;;;;;;;4.25;3.10;;;;;;;27.87;52.45;101175.06;5036530;28;20068;-57
2023/08/15 02:54:28;;;;;;;3.00;2.55;;;;;;;27.87;52.39;101175.06;5036543;28;20049;-58
2023/08/15 02:56:55;;;;;;;3.53;2.92;;;;;;;27.86;52.54;101168.78;5055247;28;20041;-57
2023/08/15 02:59:23;;;;;;;3.25;2.40;;;;;;;27.87;52.69;101169.63;5055626;28;20052;-57
2023/08/15 03:01:50;;;;;;;3.35;2.80;;;;;;;27.86;52.33;101174.22;5054872;28;20509;-58
2023/08/15 03:04:18;;;;;;;3.75;2.78;;;;;;;27.87;52.48;101175.91;5054815;28;20045;-58
2023/08/15 03:06:46;;;;;;;3.55;3.17;;;;;;;27.85;52.43;101167.94;5054828;28;20049;-57
2023/08/15 03:09:14;;;;;;;2.90;2.45;;;;;;;27.85;52.65;101167.94;5053359;28;20049;-59
2023/08/15 03:11:41;;;;;;;3.28;2.72;;;;;;;27.85;52.41;101162.50;5054922;28;20055;-59
2023/08/15 03:14:10;;;;;;;3.67;3.03;;;;;;;27.86;52.40;101166.06;5054583;28;20505;-59
2023/08/15 03:16:37;;;;;;;3.25;2.95;;;;;;;27.87;52.56;101169.63;5035990;28;20057;-59
2023/08/15 03:19:05;;;;;;;3.08;2.78;;;;;;;27.85;52.82;101159.78;5036195;28;20041;-57
2023/08/15 03:21:32;;;;;;;3.72;3.35;;;;;;;27.85;52.66;101167.94;5034943;28;20053;-57
2023/08/15 03:24:00;;;;;;;3.40;3.05;;;;;;;27.87;52.47;101164.19;5036995;28;20045;-57
2023/08/15 03:26:28;;;;;;;3.22;2.78;;;;;;;27.85;52.76;101170.66;5035234;28;20049;-57
2023/08/15 03:28:57;;;;;;;3.28;2.97;;;;;;;27.86;52.45;101163.34;5034981;28;20065;-59
2023/08/15 03:31:24;;;;;;;2.92;2.58;;;;;;;27.86;52.66;101163.34;5035191;28;20038;-59
2023/08/15 03:33:56;;;;;;;3.20;2.90;;;;;;;27.84;52.48;101166.25;5035062;28;20057;-59
2023/08/15 03:36:24;;;;;;;2.97;2.50;;;;;;;27.85;52.82;101162.50;5039532;28;20053;-59
2023/08/15 03:38:52;;;;;;;3.50;3.15;;;;;;;27.85;52.79;101164.38;5053162;28;20052;-57
2023/08/15 03:41:21;;;;;;;3.55;3.25;;;;;;;27.85;52.68;101158.94;5045110;28;20052;-57
2023/08/15 03:43:48;;;;;;;3.45;3.15;;;;;;;27.84;52.62;101152.66;5050714;28;20068;-57
2023/08/15 03:46:16;;;;;;;3.35;3.05;;;;;;;27.85;52.42;101157.06;5052944;28;20049;-57
2023/08/15 03:48:43;;;;;;;3.38;3.08;;;;;;;27.85;52.47;101157.06;5053317;28;20510;-57
2023/08/15 03:51:11;;;;;;;3.85;3.38;;;;;;;27.85;52.58;101156.22;5054137;28;20499;-57
2023/08/15 03:53:49;;;;;;;3.10;2.80;;;;;;;27.85;52.79;101169.81;5053662;28;20076;-57
2023/08/15 03:56:16;;;;;;;3.83;3.15;;;;;;;27.85;52.54;101167.09;5054299;28;20064;-57
2023/08/15 03:58:44;;;;;;;3.13;2.80;;;;;;;27.85;52.39;101167.09;5054099;28;20048;-59
2023/08/15 04:01:11;;;;;;;3.83;3.10;;;;;;;27.85;52.47;101161.66;5053260;28;20411;-59
2023/08/15 04:03:39;;;;;;;3.15;2.72;;;;;;;27.83;52.49;101164.56;5051880;28;20061;-59
2023/08/15 04:06:06;;;;;;;4.25;3.42;;;;;;;27.85;52.74;101170.66;5052584;28;20049;-59
2023/08/15 04:08:34;;;;;;;4.15;3.10;;;;;;;27.85;52.42;101167.09;5054294;28;20052;-57
2023/08/15 04:11:01;;;;;;;3.40;3.10;;;;;;;27.85;52.74;101170.66;5054018;28;20049;-58
2023/08/15 04:13:29;;;;;;;3.72;3.13;;;;;;;27.85;52.47;101173.38;5052600;28;20049;-57
2023/08/15 04:15:56;;;;;;;3.50;2.80;;;;;;;27.84;52.43;101165.41;5054288;28;20048;-58
2023/08/15 04:18:23;;;;;;;3.47;3.17;;;;;;;27.85;52.40;101172.53;5053862;28;20072;-57
2023/08/15 04:20:52;;;;;;;3.50;3.17;;;;;;;27.84;52.41;101177.13;5054278;28;20344;-57
2023/08/15 04:23:20;;;;;;;3.63;3.03;;;;;;;27.86;52.51;101174.22;5051807;28;20052;-57
2023/08/15 04:25:49;;;;;;;4.03;3.58;;;;;;;27.85;52.75;101172.53;5052527;28;20057;-57
2023/08/15 04:28:17;;;;;;;3.47;3.17;;;;;;;27.84;52.35;101179.84;5053631;28;20046;-57
2023/08/15 04:30:44;;;;;;;3.60;3.30;;;;;;;27.84;52.41;101181.72;5052829;28;20060;-57
2023/08/15 04:33:12;;;;;;;3.25;2.95;;;;;;;27.85;52.63;101188.84;5052742;28;20060;-58
2023/08/15 04:35:40;;;;;;;3.50;3.20;;;;;;;27.85;52.53;101188.84;5051850;28;20060;-57
2023/08/15 04:38:07;;;;;;;3.75;3.00;;;;;;;27.85;52.87;101194.31;5051943;28;20535;-57
2023/08/15 04:40:40;;;;;;;3.65;3.25;;;;;;;27.84;52.84;101187.16;5052395;28;20076;-57
2023/08/15 04:43:10;;;;;;;3.30;3.00;;;;;;;27.84;52.61;101190.75;5049647;28;20049;-57
2023/08/15 04:45:43;;;;;;;3.72;3.20;;;;;;;27.85;52.53;101188.84;5034288;28;20052;-57
2023/08/15 04:48:12;;;;;;;4.22;3.20;;;;;;;27.85;52.51;101186.13;5034618;28;20053;-59
2023/08/15 04:50:40;;;;;;;3.40;3.10;;;;;;;27.83;52.45;101189.06;5034412;28;20060;-59
2023/08/15 04:53:07;;;;;;;3.40;3.10;;;;;;;27.84;52.83;101198.91;5033098;28;20060;-59
2023/08/15 04:55:34;;;;;;;3.55;3.20;;;;;;;27.84;52.87;101200.78;5036968;28;20060;-59
2023/08/15 04:58:02;;;;;;;3.88;3.20;;;;;;;27.83;52.78;101194.50;5053082;28;20091;-59
2023/08/15 05:00:29;;;;;;;3.50;3.10;;;;;;;27.83;52.47;101194.50;5052381;28;20040;-59
2023/08/15 05:03:01;;;;;;;3.78;3.28;;;;;;;27.84;52.68;101195.34;5053477;28;20051;-59
2023/08/15 05:05:29;;;;;;;3.33;2.95;;;;;;;27.83;52.50;101194.50;5052841;28;20052;-59
2023/08/15 05:07:56;;;;;;;3.30;3.00;;;;;;;27.84;52.83;101198.06;5052867;28;20045;-57
2023/08/15 05:10:23;;;;;;;3.28;2.97;;;;;;;27.84;52.60;101206.22;5051072;28;20053;-57
2023/08/15 05:12:51;;;;;;;3.70;3.30;;;;;;;27.85;52.44;101207.91;5051319;28;20048;-57
2023/08/15 05:15:18;;;;;;;3.95;3.55;;;;;;;27.85;52.78;101221.50;5051604;28;20045;-57
2023/08/15 05:17:49;;;;;;;4.68;3.40;;;;;;;27.84;52.88;101219.81;5051369;28;20068;-59
2023/08/15 05:20:17;;;;;;;4.00;3.60;;;;;;;27.84;52.78;101219.81;5052064;28;20053;-59
2023/08/15 05:22:45;;;;;;;4.47;3.28;;;;;;;27.83;52.49;101213.53;5052842;28;20052;-59
2023/08/15 05:25:12;;;;;;;3.67;3.08;;;;;;;27.83;52.47;101221.69;5052894;28;20095;-59
2023/08/15 05:27:45;;;;;;;3.60;3.30;;;;;;;27.84;52.46;101215.22;5051766;28;20049;-58
2023/08/15 05:30:14;;;;;;;3.72;3.42;;;;;;;27.84;52.48;101215.22;5050924;28;20060;-57
2023/08/15 05:32:41;;;;;;;3.30;3.00;;;;;;;27.84;52.74;101223.38;5052731;28;20491;-57
2023/08/15 05:35:09;;;;;;;3.65;3.25;;;;;;;27.83;52.47;101221.69;5050966;28;20053;-58
2023/08/15 05:37:36;;;;;;;3.30;3.00;;;;;;;27.84;52.78;101222.53;5051639;28;20418;-59
2023/08/15 05:40:04;;;;;;;4.50;3.55;;;;;;;27.83;52.58;101223.53;5050768;28;20060;-59
2023/08/15 05:42:32;;;;;;;3.05;2.75;;;;;;;27.83;52.53;101218.09;5050835;28;20507;-59
2023/08/15 05:44:59;;;;;;;3.75;3.20;;;;;;;27.84;52.47;101225.25;5052818;28;20041;-59
2023/08/15 05:47:27;;;;;;;3.40;3.10;;;;;;;27.84;52.78;101225.25;5053269;28;20045;-57
2023/08/15 05:49:54;;;;;;;4.25;3.55;;;;;;;27.84;52.44;101228.00;5051960;28;20506;-57
2023/08/15 05:52:22;;;;;;;4.03;3.35;;;;;;;27.83;52.68;101235.31;5052546;28;20116;-57
2023/08/15 05:54:49;;;;;;;3.92;3.50;;;;;;;27.83;52.60;101229.88;5052158;28;20049;-57
2023/08/15 05:57:16;;;;;;;3.67;3.25;;;;;;;27.84;52.49;101230.72;5052600;28;20048;-59
2023/08/15 05:59:44;;;;;;;3.22;2.92;;;;;;;27.84;52.92;101237.00;5051746;28;20060;-59
2023/08/15 06:02:11;;;;;;;3.67;3.28;;;;;;;27.83;52.94;101238.03;5052717;28;20510;-59
2023/08/15 06:04:39;;;;;;;3.75;3.38;;;;;;;27.84;53.07;101233.44;5052381;28;20403;-59
2023/08/15 06:07:07;;;;;;;3.85;3.45;;;;;;;27.82;52.90;101233.59;5052457;28;20049;-59
2023/08/15 06:09:34;;;;;;;3.53;3.22;;;;;;;27.83;52.92;101237.16;5052013;28;20049;-59
2023/08/15 06:12:04;;;;;;;3.58;3.17;;;;;;;27.84;52.96;101244.31;5037634;28;20407;-59
2023/08/15 06:14:32;;;;;;;3.50;3.20;;;;;;;27.83;52.58;101245.31;5033617;28;20049;-59
2023/08/15 06:16:59;;;;;;;3.65;2.88;;;;;;;27.83;52.59;101250.75;5033376;28;20049;-59
2023/08/15 06:19:27;;;;;;;3.78;3.40;;;;;;;27.83;52.79;101245.31;5033214;28;20108;-59
2023/08/15 06:21:54;;;;;;;3.50;3.20;;;;;;;27.83;52.57;101240.75;5033197;28;20041;-59
2023/08/15 06:24:21;;;;;;;3.67;3.15;;;;;;;27.83;52.48;101248.03;5033363;28;20033;-59
2023/08/15 06:26:49;;;;;;;3.60;2.92;;;;;;;27.83;52.63;101251.63;5033294;28;20495;-59
2023/08/15 06:29:16;;;;;;;3.50;3.10;;;;;;;27.82;52.69;101249.91;5051934;28;20056;-57
2023/08/15 06:31:43;;;;;;;4.63;3.15;;;;;;;27.83;52.72;101251.63;5053177;28;20048;-57
2023/08/15 06:34:11;;;;;;;4.10;3.45;;;;;;;27.83;52.71;101254.34;5052488;28;20060;-57
2023/08/15 06:36:38;;;;;;;3.85;3.55;;;;;;;27.84;52.94;101257.91;5053860;28;20048;-58
2023/08/15 06:39:06;;;;;;;3.83;3.47;;;;;;;27.84;52.70;101257.91;5055169;28;20049;-59
2023/08/15 06:41:33;;;;;;;4.05;3.42;;;;;;;27.84;52.70;101256.03;5055185;28;20533;-59
2023/08/15 06:44:01;;;;;;;4.13;3.72;;;;;;;27.83;52.95;101250.75;5054548;28;20052;-59
2023/08/15 06:46:29;;;;;;;4.07;3.67;;;;;;;27.84;52.98;101257.91;5055748;28;20049;-59
2023/08/15 06:48:56;;;;;;;3.80;3.40;;;;;;;27.83;53.09;101254.34;5039715;28;20041;-59
2023/08/15 06:51:24;;;;;;;3.42;3.00;;;;;;;27.83;53.08;101259.78;5055375;28;20052;-59
2023/08/15 06:53:52;;;;;;;3.95;3.55;;;;;;;27.84;53.15;101253.31;5055376;28;20060;-59
2023/08/15 06:56:20;;;;;;;4.13;3.72;;;;;;;27.84;53.30;101263.34;5055308;28;20071;-59
2023/08/15 06:58:47;;;;;;;4.22;3.83;;;;;;;27.83;53.08;101261.63;5035936;28;20495;-57
2023/08/15 07:01:14;;;;;;;3.78;3.40;;;;;;;27.83;52.76;101267.09;5035819;28;20041;-58
2023/08/15 07:03:42;;;;;;;3.72;3.35;;;;;;;27.83;52.78;101267.09;5035746;28;20488;-58
2023/08/15 07:06:09;;;;;;;4.15;3.25;;;;;;;27.84;52.75;101268.81;5035723;28;20353;-57
2023/08/15 07:08:38;;;;;;;4.72;3.72;;;;;;;27.83;53.03;101265.22;5054703;28;20045;-57
2023/08/15 07:11:05;;;;;;;3.80;3.45;;;;;;;27.83;52.79;101264.34;5055390;28;20041;-57
2023/08/15 07:13:33;;;;;;;4.07;3.65;;;;;;;27.82;53.00;101266.22;5054920;28;20388;-57
2023/08/15 07:16:00;;;;;;;3.85;3.45;;;;;;;27.83;52.99;101265.22;5054808;28;20044;-57
2023/08/15 07:18:27;;;;;;;3.25;2.92;;;;;;;27.83;52.71;101267.97;5054496;28;20049;-59
2023/08/15 07:20:55;;;;;;;3.95;3.55;;;;;;;27.83;52.95;101262.50;5055161;28;20052;-59
2023/08/15 07:23:22;;;;;;;4.18;3.50;;;;;;;27.84;52.85;101268.81;5054714;28;20052;-59
2023/08/15 07:25:49;;;;;;;4.40;3.90;;;;;;;27.84;53.04;101268.81;5048649;28;20045;-59
2023/08/15 07:28:17;;;;;;;4.22;3.83;;;;;;;27.84;52.98;101268.81;5035361;28;20038;-57
2023/08/15 07:30:45;;;;;;;3.50;3.20;;;;;;;27.84;52.67;101272.38;5035516;28;20042;-57
2023/08/15 07:33:15;;;;;;;4.68;3.42;;;;;;;27.84;53.07;101268.81;5035039;28;20049;-58
2023/08/15 07:35:43;;;;;;;3.63;3.22;;;;;;;27.84;52.87;101268.81;5035672;28;20049;-57
2023/08/15 07:38:10;;;;;;;3.95;3.38;;;;;;;27.83;52.75;101273.41;5035822;28;20053;-57
2023/08/15 07:40:37;;;;;;;3.35;3.05;;;;;;;27.84;52.78;101263.34;5035016;28;20052;-57
2023/08/15 07:43:05;;;;;;;4.15;3.75;;;;;;;27.83;53.04;101272.53;5035028;28;20542;-57
2023/08/15 07:45:32;;;;;;;4.15;3.67;;;;;;;27.85;52.61;101267.75;5034866;28;20045;-58
2023/08/15 07:48:00;;;;;;;4.28;3.88;;;;;;;27.84;52.61;101271.53;5034243;28;20041;-59
2023/08/15 07:50:28;;;;;;;4.60;4.20;;;;;;;27.85;52.79;101275.94;5035632;28;20393;-59
2023/08/15 07:52:59;;;;;;;3.92;3.53;;;;;;;27.84;52.96;101266.94;5034830;28;20056;-59
2023/08/15 07:55:27;;;;;;;3.67;3.20;;;;;;;27.85;52.78;101270.50;5034682;28;20049;-59
2023/08/15 07:57:58;;;;;;;4.40;4.00;;;;;;;27.84;52.77;101269.66;5035168;28;20053;-57
2023/08/15 08:00:26;;;;;;;4.15;3.75;;;;;;;27.85;52.68;101275.94;5034637;28;20266;-58
2023/08/15 08:02:53;;;;;;;3.95;3.55;;;;;;;27.87;52.79;101275.75;5035119;28;20048;-58
2023/08/15 08:05:21;;;;;;;4.03;3.63;;;;;;;27.85;52.59;101270.50;5034520;28;20037;-57
2023/08/15 08:07:50;;;;;;;3.60;3.08;;;;;;;27.87;53.02;101276.59;5034520;28;20431;-59
2023/08/15 08:10:18;;;;;;;4.63;4.18;;;;;;;27.85;52.94;101268.59;5034983;28;20056;-59
2023/08/15 08:12:48;;;;;;;4.70;4.30;;;;;;;27.85;52.94;101268.59;5034441;28;20045;-59
2023/08/15 08:15:16;;;;;;;4.45;4.05;;;;;;;27.86;52.63;101266.72;5034809;28;20057;-59
2023/08/15 08:17:44;;;;;;;4.00;3.60;;;;;;;27.86;52.88;101258.56;5034937;28;20049;-57
2023/08/15 08:20:13;;;;;;;4.25;3.63;;;;;;;27.87;52.67;101267.56;5034350;28;20411;-57
2023/08/15 08:22:40;;;;;;;4.00;3.40;;;;;;;27.85;52.56;101260.44;5048558;28;20049;-57
2023/08/15 08:25:16;;;;;;;4.00;3.60;;;;;;;27.86;52.48;101272.19;5053190;28;20049;-57
2023/08/15 08:27:44;;;;;;;4.45;3.92;;;;;;;27.87;52.76;101273.03;5053927;28;20049;-57
2023/08/15 08:30:22;;;;;;;4.90;3.70;;;;;;;27.87;52.87;101270.31;5053772;28;20411;-57
2023/08/15 08:32:51;;;;;;;3.90;3.50;;;;;;;27.87;52.92;101262.97;5052987;28;20056;-57
2023/08/15 08:35:18;;;;;;;4.07;3.60;;;;;;;27.87;52.76;101265.69;5054001;28;20048;-57
2023/08/15 08:37:49;;;;;;;3.78;3.38;;;;;;;27.87;52.93;101268.41;5053503;28;20041;-57
2023/08/15 08:40:17;;;;;;;4.22;3.83;;;;;;;27.86;52.78;101261.28;5051901;28;20410;-57
2023/08/15 08:42:45;;;;;;;3.90;3.60;;;;;;;27.87;52.99;101262.97;5034755;28;20050;-57
2023/08/15 08:45:13;;;;;;;4.00;3.53;;;;;;;27.88;52.76;101259.25;5034290;28;20064;-57
2023/08/15 08:47:43;;;;;;;4.97;4.22;;;;;;;27.87;52.95;101254.81;5034333;28;20052;-59
2023/08/15 08:50:11;;;;;;;3.65;3.20;;;;;;;27.87;52.76;101260.25;5034210;28;20396;-59
2023/08/15 08:52:48;;;;;;;4.43;3.75;;;;;;;27.88;52.94;101255.69;5034854;28;20053;-59
2023/08/15 08:55:24;;;;;;;3.35;3.05;;;;;;;27.88;52.49;101259.25;5034315;28;20053;-59
2023/08/15 08:57:52;;;;;;;3.67;3.38;;;;;;;27.88;52.83;101253.81;5034519;28;20041;-57
2023/08/15 09:00:25;;;;;;;4.00;3.63;;;;;;;27.89;52.66;101260.94;5033242;28;20049;-57
2023/08/15 09:02:53;;;;;;;4.35;3.95;;;;;;;27.88;52.90;101259.25;5034574;28;20049;-57
2023/08/15 09:05:21;;;;;;;4.88;3.78;;;;;;;27.90;52.51;101249.03;5034131;28;20052;-58
2023/08/15 09:07:49;;;;;;;3.80;3.45;;;;;;;27.92;52.72;101249.72;5034234;28;20045;-59
2023/08/15 09:10:17;;;;;;;4.03;3.63;;;;;;;27.92;53.02;101243.44;5034127;28;20065;-59
2023/08/15 09:12:45;;;;;;;4.20;3.80;;;;;;;27.92;53.24;101249.72;5034203;28;20050;-59
2023/08/15 09:15:13;;;;;;;4.30;3.88;;;;;;;27.93;53.31;101239.66;5033873;28;20049;-59
2023/08/15 09:17:42;;;;;;;4.85;4.18;;;;;;;27.94;53.08;101241.34;5034042;28;20045;-59
2023/08/15 09:20:15;;;;;;;5.13;3.95;;;;;;;27.92;53.03;101238.81;5034729;28;20045;-59
2023/08/15 09:22:45;;;;;;;4.57;3.67;;;;;;;27.92;53.35;101233.38;5034343;28;20045;-59
2023/08/15 09:25:17;;;;;;;4.32;3.67;;;;;;;27.92;52.97;101225.22;5034240;28;20052;-59
2023/08/15 09:27:46;;;;;;;4.32;3.75;;;;;;;27.93;52.97;101234.22;5034131;28;20045;-57
2023/08/15 09:30:14;;;;;;;4.10;3.70;;;;;;;27.93;52.97;101229.63;5033179;28;20045;-57
2023/08/15 09:32:43;;;;;;;4.40;4.00;;;;;;;27.92;53.16;101225.22;5033422;28;20049;-57
2023/08/15 09:35:13;;;;;;;5.38;3.70;;;;;;;27.93;53.18;101210.56;5033120;28;20072;-57
2023/08/15 09:37:45;;;;;;;4.57;3.55;;;;;;;27.92;52.96;101208.03;5033089;28;20048;-59
2023/08/15 09:40:14;;;;;;;4.25;3.63;;;;;;;27.92;53.31;101211.63;5033321;28;20046;-59
2023/08/15 09:42:43;;;;;;;3.67;3.30;;;;;;;27.92;53.21;101206.16;5033115;28;20396;-59
2023/08/15 09:45:12;;;;;;;4.38;3.95;;;;;;;27.92;52.77;101202.59;5033036;28;20045;-59
2023/08/15 09:47:40;;;;;;;3.90;3.47;;;;;;;27.93;52.95;101198.84;5033195;28;20056;-59
2023/08/15 09:50:10;;;;;;;4.85;3.72;;;;;;;27.93;53.19;101207.00;5033068;28;20045;-59
2023/08/15 09:52:42;;;;;;;5.35;3.70;;;;;;;27.93;52.68;101201.56;5033014;28;20049;-59
2023/08/15 09:55:11;;;;;;;4.82;4.20;;;;;;;27.92;52.96;101195.28;5032396;28;20053;-59
2023/08/15 09:57:40;;;;;;;4.05;3.33;;;;;;;27.92;53.04;101198.00;5032916;28;20042;-57
2023/08/15 10:00:13;;;;;;;4.07;3.63;;;;;;;27.92;53.09;101189.84;5033040;28;20041;-57
2023/08/15 10:02:48;;;;;;;3.65;3.35;;;;;;;27.93;52.89;101191.53;5032677;28;20057;-58
2023/08/15 10:05:20;;;;;;;3.90;3.15;;;;;;;27.93;52.77;101185.25;5032969;28;20072;-57
2023/08/15 10:07:49;;;;;;;3.30;3.00;;;;;;;27.93;53.09;101188.81;5033443;28;20050;-57
2023/08/15 10:10:17;;;;;;;3.90;3.50;;;;;;;27.94;52.77;101190.50;5032934;28;20046;-57
2023/08/15 10:12:46;;;;;;;4.22;3.75;;;;;;;27.93;52.62;101185.25;5036768;28;20052;-57
2023/08/15 10:15:14;;;;;;;3.65;3.35;;;;;;;27.93;52.63;101185.25;5038175;28;20045;-57
2023/08/15 10:17:42;;;;;;;3.90;3.60;;;;;;;27.93;52.67;101185.25;5056258;28;20507;-57
2023/08/15 10:20:12;;;;;;;4.65;3.75;;;;;;;27.94;52.59;101178.75;5056479;28;20056;-57
2023/08/15 10:22:40;;;;;;;4.68;3.80;;;;;;;27.93;52.85;101169.75;5056255;28;20483;-57
2023/08/15 10:25:34;;;;;;;4.18;3.78;;;;;;;27.94;52.59;101159.72;5055346;28;20049;-57
2023/08/15 10:28:12;;;;;;;3.75;3.33;;;;;;;27.93;52.60;101156.16;5056088;28;20402;-59
2023/08/15 10:30:42;;;;;;;4.13;3.72;;;;;;;27.93;52.55;101158.88;5056046;28;20056;-59
2023/08/15 10:33:21;;;;;;;4.15;3.75;;;;;;;27.94;53.03;101149.69;5037006;28;20045;-60
2023/08/15 10:35:55;;;;;;;3.60;3.30;;;;;;;27.92;52.70;101149.03;5037317;28;20054;-59
2023/08/15 10:38:30;;;;;;;3.72;3.33;;;;;;;27.93;52.95;101148.00;5037049;28;20053;-57
2023/08/15 10:41:15;;;;;;;3.63;3.17;;;;;;;27.93;52.62;101148.00;5037415;28;20053;-57
2023/08/15 10:43:52;;;;;;;4.15;3.72;;;;;;;27.93;52.60;101145.28;5037227;28;20050;-57
2023/08/15 10:46:27;;;;;;;3.80;3.40;;;;;;;27.94;52.71;101146.94;5036990;28;20055;-57
2023/08/15 10:48:58;;;;;;;4.03;3.65;;;;;;;27.94;52.56;101149.69;5055327;28;20045;-59
2023/08/15 10:51:33;;;;;;;4.13;3.72;;;;;;;27.93;52.87;101148.00;5055506;28;20111;-59
2023/08/15 10:54:06;;;;;;;3.97;3.50;;;;;;;27.94;52.96;101155.13;5055496;28;20052;-59
2023/08/15 10:56:36;;;;;;;3.75;3.40;;;;;;;27.95;52.71;101151.34;5054542;28;20040;-59
2023/08/15 10:59:13;;;;;;;3.85;3.50;;;;;;;27.94;52.67;101143.38;5055798;28;20503;-59
2023/08/15 11:01:42;;;;;;;3.53;3.20;;;;;;;27.93;52.99;101145.28;5055467;28;20045;-59
2023/08/15 11:04:14;;;;;;;3.22;2.92;;;;;;;27.94;52.57;101138.78;5054970;28;20075;-59
2023/08/15 11:06:46;;;;;;;4.03;3.63;;;;;;;27.94;52.94;101136.06;5036640;28;20038;-59
2023/08/15 11:09:15;;;;;;;3.97;3.25;;;;;;;27.94;52.87;101132.50;5036419;28;20484;-59
2023/08/15 11:11:44;;;;;;;4.35;3.88;;;;;;;27.94;52.85;101136.06;5049054;28;20503;-60
2023/08/15 11:14:16;;;;;;;3.90;3.50;;;;;;;27.95;52.65;101136.91;5054298;28;20060;-59
2023/08/15 11:16:45;;;;;;;3.88;3.50;;;;;;;27.93;52.54;101126.22;5054848;28;20407;-59
2023/08/15 11:19:18;;;;;;;3.83;3.42;;;;;;;27.95;52.50;101124.16;5055226;28;20045;-59
2023/08/15 11:21:47;;;;;;;4.20;3.80;;;;;;;27.95;52.78;101129.59;5055359;28;20040;-59
2023/08/15 11:24:15;;;;;;;4.15;3.72;;;;;;;27.94;52.63;101122.47;5054066;28;20403;-59
2023/08/15 11:26:42;;;;;;;4.38;3.83;;;;;;;27.94;52.81;101119.75;5054699;28;20056;-59
2023/08/15 11:29:12;;;;;;;4.03;3.63;;;;;;;27.95;52.87;101118.72;5054810;28;20037;-59
2023/08/15 11:31:40;;;;;;;5.00;3.95;;;;;;;27.95;52.75;101117.88;5054941;28;20403;-59